| parent folder | - | - |
| - | 1516057.json | 5222 | 2025-07-26 08:40:07 |
| - | 1516057_2147954_Lewdedew_goatmom.jpg | 235135 | 2025-07-26 08:40:07 |
| - | 1520382.json | 4733 | 2025-07-26 07:01:38 |
| - | 1520382_2154110_Lewdedew_bunny_endsfw.jpg | 126480 | 2025-07-26 07:01:38 |
| - | 1520872.json | 5240 | 2025-07-26 06:49:24 |
| - | 1520872_2154992_Lewdedew_bunny_endnsfw.jpg | 126827 | 2025-07-26 06:49:24 |
| - | 1525034.json | 5567 | 2025-07-26 05:10:51 |
| - | 1525034_2161047_Lewdedew_miraxisamu.jpg | 116375 | 2025-07-26 05:10:51 |
| - | 1530318.json | 4813 | 2025-07-26 03:09:44 |
| - | 1530318_2168588_Lewdedew_requests.jpg | 117682 | 2025-07-26 03:09:44 |
| - | 1534801.json | 4806 | 2025-07-26 01:28:41 |
| - | 1534801_2175514_Lewdedew_bea.jpg | 99432 | 2025-07-26 01:28:41 |
| - | 1536019.json | 4911 | 2025-07-26 01:00:14 |
| - | 1536019_2177310_Lewdedew_beansfw.jpg | 92888 | 2025-07-26 01:00:14 |
| - | 1537398.json | 9753 | 2025-07-26 00:27:37 |
| - | 1537398_2179381_Lewdedew_non-twiversion.jpg | 143889 | 2025-07-26 00:27:37 |
| - | 1537398_2179382_Lewdedew_twiversion.jpg | 155674 | 2025-07-26 00:27:37 |
| - | 1537398_2179386_Lewdedew_twiversionuncen.jpg | 159056 | 2025-07-26 00:27:37 |
| - | 1542711.json | 5321 | 2025-07-25 22:25:11 |
| - | 1542711_2187903_Lewdedew_twoforonensfw.jpg | 142387 | 2025-07-25 22:25:11 |
| - | 1543424.json | 4915 | 2025-07-25 22:06:18 |
| - | 1543424_2189039_Lewdedew_kissrequest.jpg | 129188 | 2025-07-25 22:06:18 |
| - | 1547286.json | 8616 | 2025-07-25 20:21:31 |
| - | 1547286_2194728_Lewdedew_evil.jpg | 198682 | 2025-07-25 20:21:31 |
| - | 1547286_2194729_Lewdedew_twonsfw.jpg | 186381 | 2025-07-25 20:21:31 |
| - | 1551841.json | 10077 | 2025-07-25 18:32:29 |
| - | 1551841_2201815_Lewdedew_idontrequest.jpg | 237195 | 2025-07-25 18:32:29 |
| - | 1551841_2201817_Lewdedew_idontrequestnsfw1.jpg | 236929 | 2025-07-25 18:32:29 |
| - | 1551841_2201818_Lewdedew_idontrequestnsfw2.jpg | 215902 | 2025-07-25 18:32:29 |
| - | 1551995.json | 5218 | 2025-07-25 18:28:59 |
| - | 1551995_2202039_Lewdedew_bunny.jpg | 176661 | 2025-07-25 18:28:59 |
| - | 1558270.json | 5144 | 2025-07-25 15:43:31 |
| - | 1558270_2211832_Lewdedew_twilight.jpg | 95803 | 2025-07-25 15:43:31 |
| - | 1565246.json | 8250 | 2025-07-25 13:01:14 |
| - | 1565246_2222564_Lewdedew_applejacksfw.jpg | 231536 | 2025-07-25 13:01:14 |
| - | 1565246_2222565_Lewdedew_applejacksnsfw.jpg | 224507 | 2025-07-25 13:01:15 |
| - | 1601342.json | 7335 | 2025-07-24 22:32:41 |
| - | 1601342_2279453_Lewdedew_mayfuta.jpg | 188344 | 2025-07-24 22:32:42 |
| - | 1601342_2279454_Lewdedew_maynonfuta.jpg | 185878 | 2025-07-24 22:32:41 |
| - | 1605306.json | 5282 | 2025-07-24 20:54:26 |
| - | 1605306_2285479_Lewdedew_motmotrequest.jpg | 125844 | 2025-07-24 20:54:26 |
| - | 1613617.json | 5457 | 2025-07-24 17:21:50 |
| - | 1613617_2299115_Lewdedew_sapphirerequest.jpg | 161895 | 2025-07-24 17:21:50 |
| - | 1627548.json | 4788 | 2025-07-24 11:52:04 |
| - | 1627548_2321746_Lewdedew_enidfeet.jpg | 146511 | 2025-07-24 11:52:04 |
| - | 1636164.json | 8210 | 2025-07-24 08:16:42 |
| - | 1636164_2334491_Lewdedew_dashrequest.jpg | 170721 | 2025-07-24 08:16:42 |
| - | 1636164_2334492_Lewdedew_dashrequestnsfw.jpg | 162147 | 2025-07-24 08:16:42 |
| - | 1640873.json | 8713 | 2025-07-24 06:27:47 |
| - | 1640873_2341528_Lewdedew_lilrequestsfw.jpg | 191464 | 2025-07-24 06:27:47 |
| - | 1640873_2341529_Lewdedew_lilrequestnsfw.jpg | 166381 | 2025-07-24 06:27:47 |
| - | 1656020.json | 8508 | 2025-07-24 00:26:46 |
| - | 1656020_2364814_Lewdedew_tempestreq2.jpg | 552132 | 2025-07-24 00:26:45 |
| - | 1656020_2364815_Lewdedew_tempestreq.jpg | 528093 | 2025-07-24 00:26:46 |
| - | 1658936.json | 7818 | 2025-07-23 23:11:55 |
| - | 1658936_2369213_Lewdedew_alpundsfw.jpg | 460707 | 2025-07-23 23:11:55 |
| - | 1658936_2369214_Lewdedew_alpundnsfw.jpg | 455361 | 2025-07-23 23:11:55 |
| - | 1660182.json | 8146 | 2025-07-23 22:41:22 |
| - | 1660182_2371160_Lewdedew_reqnarutosfw.jpg | 887858 | 2025-07-23 22:41:22 |
| - | 1660182_2371161_Lewdedew_reqnarutonsfw.jpg | 887669 | 2025-07-23 22:41:22 |
| - | 1696666.json | 7865 | 2025-07-23 07:03:07 |
| - | 1696666_2425950_Lewdedew_reqvinsfw.jpg | 510395 | 2025-07-23 07:03:06 |
| - | 1696666_2425951_Lewdedew_reqvinnsfw.jpg | 490582 | 2025-07-23 07:03:07 |
| - | 1714854.json | 4998 | 2025-07-22 23:57:23 |
| - | 1714854_2453070_Lewdedew_reqkrystal.jpg | 189568 | 2025-07-22 23:57:23 |
| - | 1719255.json | 12009 | 2025-07-22 22:11:00 |
| - | 1719255_2459491_Lewdedew_reqokkopumpsfw.jpg | 696781 | 2025-07-22 22:11:00 |
| - | 1719255_2459492_Lewdedew_reqokkopumnsfw.jpg | 653752 | 2025-07-22 22:11:00 |
| - | 1719255_2459493_Lewdedew_reqokkosfw.jpg | 665416 | 2025-07-22 22:11:00 |
| - | 1719255_2459494_Lewdedew_reqokkonsfw.jpg | 637633 | 2025-07-22 22:11:01 |
| - | 1722195.json | 9960 | 2025-07-22 20:59:47 |
| - | 1722195_2463777_Lewdedew_reqprecuresfw.jpg | 737249 | 2025-07-22 20:59:47 |
| - | 1722195_2463778_Lewdedew_reqprecurensfw.jpg | 740323 | 2025-07-22 20:59:47 |
| - | 1722195_2463779_Lewdedew_reqprecurepeeknsfw.jpg | 758596 | 2025-07-22 20:59:48 |
| - | 1727656.json | 8415 | 2025-07-22 18:48:09 |
| - | 1727656_2471589_Lewdedew_halloflutteranthrocen.jpg | 1161469 | 2025-07-22 18:48:09 |
| - | 1727656_2471592_Lewdedew_halloflutteranthro.jpg | 1140378 | 2025-07-22 18:48:09 |
| - | 1729887.json | 10260 | 2025-07-22 17:56:20 |
| - | 1729887_2474864_Lewdedew_reqtwidash2.jpg | 559279 | 2025-07-22 17:56:20 |
| - | 1729887_2474865_Lewdedew_reqtwidashnsfw1.jpg | 577814 | 2025-07-22 17:56:20 |
| - | 1729887_2474867_Lewdedew_reqtwidashnsfw2.jpg | 584827 | 2025-07-22 17:56:21 |
| - | 1741403.json | 8274 | 2025-07-22 12:56:10 |
| - | 1741403_2492596_Lewdedew_reqbeasfw.jpg | 429930 | 2025-07-22 12:56:10 |
| - | 1741403_2492597_Lewdedew_reqbeansfw.jpg | 416929 | 2025-07-22 12:56:10 |
| - | 1749031.json | 10425 | 2025-07-22 09:46:05 |
| - | 1749031_2504116_Lewdedew_reqfootdevart.jpg | 530148 | 2025-07-22 09:46:04 |
| - | 1749031_2504117_Lewdedew_reqfoot.jpg | 527715 | 2025-07-22 09:46:04 |
| - | 1749031_2508034_Lewdedew_reqfootcum.jpg | 531594 | 2025-07-22 09:46:05 |
| - | 1752052.json | 4868 | 2025-07-22 08:35:13 |
| - | 1752052_2508601_Lewdedew_reqscp.jpg | 280540 | 2025-07-22 08:35:13 |
| - | 1758648.json | 10012 | 2025-07-22 06:02:16 |
| - | 1758648_2518841_Lewdedew_avian-requestsfw.jpg | 810885 | 2025-07-22 06:02:16 |
| - | 1758648_2518842_Lewdedew_avian-request2.jpg | 825866 | 2025-07-22 06:02:16 |
| - | 1758648_2518843_Lewdedew_avian-requestfuraff.jpg | 824522 | 2025-07-22 06:02:16 |
| - | 1760274.json | 8742 | 2025-07-22 05:25:07 |
| - | 1760274_2521422_Lewdedew_reqswallow.jpg | 849961 | 2025-07-22 05:25:07 |
| - | 1760274_2521423_Lewdedew_reqswallownsfw.jpg | 850426 | 2025-07-22 05:25:08 |
| - | 1765603.json | 8040 | 2025-07-22 03:19:01 |
| - | 1765603_2530016_Lewdedew_reqtailskosfw.jpg | 693752 | 2025-07-22 03:19:01 |
| - | 1765603_2530017_Lewdedew_reqtailskonsfw.jpg | 692343 | 2025-07-22 03:19:01 |
| - | 1765613.json | 7171 | 2025-07-22 03:18:47 |
| - | 1765613_2530034_Lewdedew_reqagresssfw.jpg | 577269 | 2025-07-22 03:18:47 |
| - | 1765613_2530035_Lewdedew_reqagresssnfw.jpg | 578847 | 2025-07-22 03:18:46 |
| - | 1789967.json | 8218 | 2025-07-21 17:32:48 |
| - | 1789967_2566052_Lewdedew_agresstsuna.jpg | 636388 | 2025-07-21 17:32:48 |
| - | 1789967_2566054_Lewdedew_agresstsunansfw.jpg | 631892 | 2025-07-21 17:32:48 |
| - | 1805652.json | 8273 | 2025-07-21 10:31:07 |
| - | 1805652_2590421_Lewdedew_reqhuggersfw.jpg | 750786 | 2025-07-21 10:31:07 |
| - | 1805652_2590422_Lewdedew_reqhuggernsfw.jpg | 791161 | 2025-07-21 10:31:08 |
| - | 1805672.json | 8212 | 2025-07-21 10:30:33 |
| - | 1805672_2590446_Lewdedew_reqsediarsfw.jpg | 812592 | 2025-07-21 10:30:32 |
| - | 1805672_2590447_Lewdedew_reqsediarnsfw.jpg | 810847 | 2025-07-21 10:30:33 |
| - | 1836003.json | 5817 | 2025-07-20 21:59:46 |
| - | 1836003_2636404_Lewdedew_reqbondagerari.jpg | 675945 | 2025-07-20 21:59:46 |
| - | 1863778.json | 8443 | 2025-07-20 05:27:28 |
| - | 1863778_2678327_Lewdedew_reqaggres.jpg | 552040 | 2025-07-20 05:27:28 |
| - | 1863778_2678328_Lewdedew_reqaggresnsfw.jpg | 564384 | 2025-07-20 05:27:28 |
| - | 1863782.json | 4932 | 2025-07-20 05:27:22 |
| - | 1863782_2678332_Lewdedew_req-ponyoc3nsfw.jpg | 455118 | 2025-07-20 05:27:22 |
| - | 1866890.json | 5790 | 2025-07-20 04:08:17 |
| - | 1866890_2683403_Lewdedew_reqapplextwi.jpg | 767824 | 2025-07-20 04:08:17 |
| - | 1867595.json | 5181 | 2025-07-20 03:44:57 |
| - | 1867595_2684494_Lewdedew_req_sonicoc.jpg | 755728 | 2025-07-20 03:44:57 |
| - | 1867599.json | 5112 | 2025-07-20 03:44:52 |
| - | 1867599_2684498_Lewdedew_req_lola.jpg | 315078 | 2025-07-20 03:44:52 |
| - | 1873634.json | 8454 | 2025-07-20 01:06:40 |
| - | 1873634_2693687_Lewdedew_reqanthropasfw.jpg | 952182 | 2025-07-20 01:06:40 |
| - | 1873634_2693690_Lewdedew_reqanthropansfw.jpg | 939841 | 2025-07-20 01:06:40 |